createdAt,value
2022-10-22T00:02:06.818Z,26.98
2022-10-22T00:04:35.866Z,23.52
2022-10-22T00:07:07.040Z,25.52
2022-10-22T00:09:39.428Z,24.42
2022-10-22T00:12:09.208Z,24.83
2022-10-22T00:14:37.901Z,27.77
2022-10-22T00:17:10.495Z,24.83
2022-10-22T00:19:40.529Z,25.80
2022-10-22T00:22:11.383Z,24.13
2022-10-22T00:24:41.206Z,23.98
2022-10-22T00:27:13.013Z,23.90
2022-10-22T00:29:41.296Z,23.88
2022-10-22T00:32:12.721Z,22.30
2022-10-22T00:34:40.938Z,25.33
2022-10-22T00:37:09.405Z,22.38
2022-10-22T00:39:37.835Z,23.67
2022-10-22T00:42:07.228Z,29.17
2022-10-22T00:45:09.826Z,21.17
2022-10-22T00:47:41.310Z,22.10
2022-10-22T00:50:16.148Z,21.48
2022-10-22T00:52:45.395Z,23.27
2022-10-22T00:55:16.026Z,24.42
2022-10-22T00:57:45.269Z,23.60
2022-10-22T01:00:16.695Z,23.27
2022-10-22T01:02:46.919Z,26.42
2022-10-22T01:05:15.370Z,22.70
2022-10-22T01:07:46.863Z,24.17
2022-10-22T01:10:23.978Z,26.00
2022-10-22T01:13:01.608Z,22.95
2022-10-22T01:15:40.083Z,26.02
2022-10-22T01:18:12.387Z,22.05
2022-10-22T01:21:01.276Z,23.38
2022-10-22T01:23:57.025Z,23.55
2022-10-22T01:26:35.053Z,21.98
2022-10-22T01:29:14.575Z,23.40
2022-10-22T01:31:47.542Z,23.63
2022-10-22T01:34:21.071Z,21.27
2022-10-22T01:36:52.754Z,23.35
2022-10-22T01:39:23.281Z,26.35
2022-10-22T01:41:52.166Z,24.38
2022-10-22T01:47:16.007Z,22.95
2022-10-22T01:50:17.229Z,24.75
2022-10-22T01:53:08.354Z,20.67
2022-10-22T01:55:44.993Z,20.13
2022-10-22T01:58:24.262Z,23.70
2022-10-22T02:01:02.216Z,22.92
2022-10-22T02:03:35.157Z,24.63
2022-10-22T02:06:08.976Z,20.17
2022-10-22T02:08:39.008Z,21.83
2022-10-22T02:11:07.993Z,26.60
2022-10-22T02:13:40.901Z,24.00
2022-10-22T02:16:14.369Z,20.83
2022-10-22T02:18:46.459Z,22.30
2022-10-22T02:21:15.843Z,26.08
2022-10-22T02:23:44.641Z,21.70
2022-10-22T02:26:23.721Z,22.80
2022-10-22T02:28:59.309Z,24.85
2022-10-22T02:31:32.615Z,23.98
2022-10-22T02:34:08.273Z,24.55
2022-10-22T02:36:40.134Z,24.90
2022-10-22T02:41:45.283Z,22.02
2022-10-22T02:44:13.839Z,21.70
2022-10-22T02:46:44.865Z,23.27
2022-10-22T02:49:13.241Z,23.53
2022-10-22T02:51:41.543Z,22.30
2022-10-22T02:54:09.763Z,23.50
2022-10-22T02:56:41.175Z,26.17
2022-10-22T02:59:09.768Z,22.77
2022-10-22T03:01:38.130Z,23.15
2022-10-22T03:04:09.944Z,26.92
2022-10-22T03:06:38.309Z,23.13
2022-10-22T03:09:07.775Z,26.30
2022-10-22T03:11:38.434Z,25.63
2022-10-22T03:14:07.429Z,25.98
2022-10-22T03:16:35.464Z,25.55
2022-10-22T03:19:03.921Z,26.95
2022-10-22T03:21:38.415Z,26.05
2022-10-22T03:24:11.038Z,24.05
2022-10-22T03:26:41.793Z,24.27
2022-10-22T03:29:11.901Z,24.88
2022-10-22T03:31:41.109Z,25.48
2022-10-22T03:34:15.308Z,24.25
2022-10-22T03:36:45.415Z,23.50
2022-10-22T03:39:15.648Z,24.70
2022-10-22T03:41:46.069Z,27.77
2022-10-22T03:44:14.738Z,26.13
2022-10-22T03:46:46.578Z,26.25
2022-10-22T03:49:14.651Z,26.30
2022-10-22T03:51:44.501Z,24.77
2022-10-22T03:54:12.987Z,24.58
2022-10-22T03:56:41.418Z,24.73
2022-10-22T03:59:09.454Z,26.02
2022-10-22T04:01:40.574Z,25.50
2022-10-22T04:04:09.459Z,25.13
2022-10-22T04:06:38.486Z,27.05
2022-10-22T04:09:09.239Z,27.60
2022-10-22T04:11:37.650Z,29.15
2022-10-22T04:14:06.568Z,26.95
2022-10-22T04:16:40.342Z,26.95
2022-10-22T04:19:08.866Z,28.80
2022-10-22T04:21:39.154Z,25.48
2022-10-22T04:24:11.835Z,28.13
2022-10-22T04:26:40.297Z,26.23
2022-10-22T04:29:11.973Z,25.38
2022-10-22T04:31:47.957Z,25.55
2022-10-22T04:34:15.994Z,25.58
2022-10-22T04:36:44.361Z,26.48
2022-10-22T04:39:16.598Z,26.20
2022-10-22T04:41:48.777Z,27.05
2022-10-22T04:44:17.135Z,25.05
2022-10-22T04:46:47.059Z,27.20
2022-10-22T04:49:15.453Z,29.80
2022-10-22T04:51:43.948Z,32.38
2022-10-22T04:54:14.965Z,27.33
2022-10-22T04:56:43.710Z,29.48
2022-10-22T04:59:14.949Z,27.40
2022-10-22T05:01:45.802Z,29.77
2022-10-22T05:04:17.529Z,26.60
2022-10-22T05:06:46.934Z,27.85
2022-10-22T05:09:18.711Z,28.27
2022-10-22T05:11:49.871Z,33.13
2022-10-22T05:14:20.107Z,29.03
2022-10-22T05:16:49.401Z,30.17
2022-10-22T05:19:20.374Z,28.42
2022-10-22T05:21:48.908Z,38.78
2022-10-22T05:24:19.607Z,29.15
2022-10-22T05:26:50.819Z,30.17
2022-10-22T05:29:24.430Z,28.65
2022-10-22T05:31:53.550Z,30.30
2022-10-22T05:34:21.595Z,27.65
2022-10-22T05:36:49.660Z,55.60
2022-10-22T05:39:22.021Z,31.60
2022-10-22T05:41:58.589Z,31.05
2022-10-22T05:44:29.491Z,36.03
2022-10-22T05:46:58.402Z,28.50
2022-10-22T05:49:28.240Z,33.30
2022-10-22T05:51:58.282Z,30.33
2022-10-22T05:54:28.073Z,30.58
2022-10-22T05:56:59.655Z,30.48
2022-10-22T05:59:30.221Z,27.15
2022-10-22T06:02:01.518Z,34.08
2022-10-22T06:04:30.234Z,29.40
2022-10-22T06:06:58.592Z,29.20
2022-10-22T06:14:40.687Z,30.27
2022-10-22T06:17:11.750Z,27.48
2022-10-22T06:19:40.420Z,31.83
2022-10-22T06:22:09.216Z,30.60
2022-10-22T06:24:45.129Z,30.02
2022-10-22T06:27:16.397Z,28.90
2022-10-22T06:29:45.927Z,31.60
2022-10-22T06:32:14.349Z,26.95
2022-10-22T06:34:43.975Z,27.52
2022-10-22T06:37:13.879Z,30.55
2022-10-22T06:39:43.804Z,31.50
2022-10-22T06:42:12.947Z,29.27
2022-10-22T06:44:41.226Z,28.13
2022-10-22T06:47:09.652Z,30.05
2022-10-22T06:49:37.949Z,29.48
2022-10-22T06:52:07.202Z,33.42
2022-10-22T06:54:36.376Z,26.80
2022-10-22T06:57:06.684Z,30.35
2022-10-22T06:59:38.581Z,26.85
2022-10-22T07:02:08.799Z,29.75
2022-10-22T07:04:37.192Z,32.08
2022-10-22T07:07:06.081Z,27.35
2022-10-22T07:09:34.289Z,29.60
2022-10-22T07:12:02.878Z,30.25
2022-10-22T07:14:35.510Z,30.05
2022-10-22T07:17:04.097Z,33.13
2022-10-22T07:19:33.861Z,24.40
2022-10-22T07:22:03.171Z,23.23
2022-10-22T07:24:31.372Z,24.38
2022-10-22T07:27:00.994Z,26.20
2022-10-22T07:29:29.585Z,30.48
2022-10-22T07:31:59.911Z,24.17
2022-10-22T07:34:28.257Z,29.83
2022-10-22T07:36:57.388Z,25.77
2022-10-22T07:39:27.473Z,27.75
2022-10-22T07:41:55.999Z,24.27
2022-10-22T07:44:24.704Z,29.13
2022-10-22T07:46:53.024Z,37.47
2022-10-22T07:49:23.967Z,29.63
2022-10-22T07:51:52.489Z,27.88
2022-10-22T07:54:20.887Z,25.98
2022-10-22T07:56:50.345Z,27.02
2022-10-22T07:59:18.785Z,30.70
2022-10-22T08:01:47.485Z,28.00
2022-10-22T08:04:15.526Z,28.75
2022-10-22T08:06:47.219Z,26.60
2022-10-22T08:09:16.544Z,24.35
2022-10-22T08:11:47.753Z,27.02
2022-10-22T08:14:16.881Z,28.17
2022-10-22T08:16:46.445Z,21.52
2022-10-22T08:19:19.443Z,26.23
2022-10-22T08:21:49.401Z,26.00
2022-10-22T08:24:17.943Z,27.92
2022-10-22T08:26:46.150Z,26.58
2022-10-22T08:29:14.590Z,27.52
2022-10-22T08:31:44.274Z,28.05
2022-10-22T08:34:13.523Z,24.10
2022-10-22T08:36:42.003Z,98.15
2022-10-22T08:39:11.904Z,48.50
2022-10-22T08:41:51.881Z,28.13
2022-10-22T08:44:57.125Z,32.92
2022-10-22T08:47:39.148Z,23.38
2022-10-22T08:50:10.685Z,27.60
2022-10-22T08:52:43.714Z,25.67
2022-10-22T08:55:16.508Z,32.35
2022-10-22T08:57:53.619Z,27.25
2022-10-22T09:00:25.379Z,28.92
2022-10-22T09:03:06.567Z,33.13
2022-10-22T09:05:47.035Z,32.28
2022-10-22T09:08:18.339Z,28.92
2022-10-22T09:10:51.568Z,29.63
2022-10-22T09:13:22.891Z,27.77
2022-10-22T09:15:58.573Z,29.75
2022-10-22T09:18:37.310Z,23.15
2022-10-22T09:21:18.376Z,23.75
2022-10-22T09:23:59.235Z,26.10
2022-10-22T09:26:28.933Z,26.38
2022-10-22T09:29:02.047Z,24.90
2022-10-22T09:31:33.808Z,26.90
2022-10-22T09:34:07.707Z,25.85
2022-10-22T09:36:36.336Z,24.33
2022-10-22T09:39:05.459Z,22.77
2022-10-22T09:41:37.864Z,33.88
2022-10-22T09:44:09.182Z,25.92
2022-10-22T09:46:44.984Z,30.33
2022-10-22T09:49:15.514Z,33.67
2022-10-22T09:51:52.215Z,46.83
2022-10-22T09:54:22.722Z,34.88
2022-10-22T09:56:58.045Z,23.33
2022-10-22T09:59:30.723Z,30.60
2022-10-22T10:02:13.839Z,25.08
2022-10-22T10:04:51.420Z,23.17
2022-10-22T10:07:23.077Z,24.73
2022-10-22T10:09:52.455Z,28.40
2022-10-22T10:12:33.556Z,27.50
2022-10-22T10:15:16.875Z,22.50
2022-10-22T10:17:52.414Z,30.17
2022-10-22T10:20:32.225Z,28.95
2022-10-22T10:23:10.522Z,24.55
2022-10-22T10:25:49.669Z,22.17
2022-10-22T10:28:46.822Z,30.30
2022-10-22T10:31:24.544Z,31.25
2022-10-22T10:34:00.563Z,22.58
2022-10-22T10:36:39.640Z,28.25
2022-10-22T10:39:14.017Z,27.50
2022-10-22T10:41:53.375Z,23.90
2022-10-22T10:44:52.150Z,27.15
2022-10-22T10:47:40.324Z,26.75
2022-10-22T10:50:20.144Z,24.83
2022-10-22T10:53:05.955Z,24.23
2022-10-22T10:55:43.668Z,22.35
2022-10-22T10:58:19.368Z,32.67
2022-10-22T11:01:00.261Z,25.17
2022-10-22T11:03:42.159Z,56.72
2022-10-22T11:06:13.300Z,25.27
2022-10-22T11:08:50.306Z,68.95
2022-10-22T11:11:23.016Z,34.53
2022-10-22T11:14:00.818Z,24.30
2022-10-22T11:16:36.860Z,27.88
2022-10-22T11:19:15.531Z,27.75
2022-10-22T11:21:57.916Z,29.85
2022-10-22T11:24:29.636Z,25.50
2022-10-22T11:27:02.438Z,28.30
2022-10-22T11:29:39.506Z,28.02
2022-10-22T11:32:14.975Z,27.35
2022-10-22T11:34:47.934Z,25.52
2022-10-22T11:37:18.091Z,28.35
2022-10-22T11:39:52.060Z,26.77
2022-10-22T11:42:22.520Z,26.80
2022-10-22T11:45:01.249Z,34.30
2022-10-22T11:47:34.409Z,30.55
2022-10-22T11:50:21.658Z,27.88
2022-10-22T11:53:00.378Z,26.10
2022-10-22T11:55:34.527Z,24.83
2022-10-22T11:58:04.336Z,27.08
2022-10-22T12:00:42.739Z,29.30
2022-10-22T12:03:20.188Z,28.98
2022-10-22T12:06:03.498Z,46.47
2022-10-22T12:08:33.132Z,31.50
2022-10-22T12:11:22.171Z,28.40
2022-10-22T12:14:02.841Z,30.30
2022-10-22T12:16:56.651Z,27.98
2022-10-22T12:19:30.590Z,48.10
2022-10-22T12:22:01.685Z,26.60
2022-10-22T12:24:33.997Z,40.13
2022-10-22T12:27:02.352Z,31.42
2022-10-22T12:29:33.756Z,25.90
2022-10-22T12:32:08.050Z,28.08
2022-10-22T12:37:24.500Z,28.25
2022-10-22T12:39:52.828Z,29.17
2022-10-22T12:42:23.799Z,31.10
2022-10-22T12:44:58.316Z,29.27
2022-10-22T12:47:32.428Z,30.58
2022-10-22T12:50:06.183Z,33.17
2022-10-22T12:52:35.203Z,34.25
2022-10-22T12:55:08.482Z,37.35
2022-10-22T12:57:39.761Z,34.88
2022-10-22T13:00:22.070Z,35.07
2022-10-22T13:02:54.346Z,30.23
2022-10-22T13:05:28.263Z,28.05
2022-10-22T13:08:06.860Z,28.65
2022-10-22T13:10:39.174Z,26.88
2022-10-22T13:13:08.095Z,30.70
2022-10-22T13:15:42.691Z,31.65
2022-10-22T13:18:19.533Z,25.85
2022-10-22T13:20:59.109Z,29.13
2022-10-22T13:23:29.979Z,26.23
2022-10-22T13:26:00.487Z,30.63
2022-10-22T13:28:29.709Z,35.05
2022-10-22T13:31:00.127Z,31.67
2022-10-22T13:33:32.113Z,32.08
2022-10-22T13:36:01.811Z,30.05
2022-10-22T13:38:30.503Z,42.90
2022-10-22T13:41:00.836Z,42.65
2022-10-22T13:43:29.309Z,35.42
2022-10-22T13:46:00.266Z,31.23
2022-10-22T13:48:29.758Z,31.70
2022-10-22T13:50:58.003Z,33.45
2022-10-22T13:53:30.832Z,33.03
2022-10-22T13:55:59.855Z,32.80
2022-10-22T13:58:29.482Z,29.65
2022-10-22T14:01:03.164Z,29.70
2022-10-22T14:03:35.148Z,33.38
2022-10-22T14:06:03.358Z,34.63
2022-10-22T14:08:33.329Z,32.05
2022-10-22T14:11:01.774Z,32.90
2022-10-22T14:13:29.976Z,34.05
2022-10-22T14:15:58.762Z,35.03
2022-10-22T14:18:31.693Z,33.97
2022-10-22T14:21:05.031Z,31.23
2022-10-22T14:23:37.258Z,30.75
2022-10-22T14:26:07.704Z,33.42
2022-10-22T14:28:41.234Z,31.67
2022-10-22T14:31:12.295Z,37.92
2022-10-22T14:33:41.155Z,31.40
2022-10-22T14:36:13.083Z,30.63
2022-10-22T14:41:20.039Z,28.60
2022-10-22T14:43:49.384Z,34.95
2022-10-22T14:46:18.689Z,29.73
2022-10-22T14:48:47.465Z,37.13
2022-10-22T14:51:19.010Z,32.58
2022-10-22T14:53:50.078Z,32.88
2022-10-22T14:56:21.320Z,31.10
2022-10-22T14:58:50.716Z,32.53
2022-10-22T15:01:19.339Z,31.25
2022-10-22T15:03:47.913Z,30.08
2022-10-22T15:06:16.390Z,39.28
2022-10-22T15:08:46.310Z,36.65
2022-10-22T15:11:16.491Z,36.08
2022-10-22T15:13:45.257Z,36.97
2022-10-22T15:16:16.942Z,34.08
2022-10-22T15:18:45.697Z,34.95
2022-10-22T15:21:17.276Z,33.38
2022-10-22T15:23:45.768Z,39.95
2022-10-22T15:26:16.071Z,31.17
2022-10-22T15:28:44.977Z,31.30
2022-10-22T15:31:15.023Z,36.70
2022-10-22T15:33:44.162Z,37.10
2022-10-22T15:36:15.044Z,33.75
2022-10-22T15:38:44.510Z,40.63
2022-10-22T15:41:16.218Z,34.85
2022-10-22T15:43:44.936Z,44.58
2022-10-22T15:46:16.804Z,44.83
2022-10-22T15:48:47.440Z,40.45
2022-10-22T15:51:20.775Z,37.10
2022-10-22T15:53:53.156Z,39.80
2022-10-22T15:56:25.313Z,34.90
2022-10-22T16:01:26.572Z,38.88
2022-10-22T16:04:02.866Z,34.63
2022-10-22T16:06:33.688Z,35.22
2022-10-22T16:09:05.347Z,46.35
2022-10-22T16:11:40.359Z,41.45
2022-10-22T16:14:10.272Z,37.25
2022-10-22T16:16:42.863Z,40.78
2022-10-22T16:19:12.891Z,40.25
2022-10-22T16:21:42.153Z,37.15
2022-10-22T16:24:10.676Z,37.17
2022-10-22T16:26:40.899Z,35.10
2022-10-22T16:29:13.595Z,39.63
2022-10-22T16:31:43.805Z,39.35
2022-10-22T16:34:13.058Z,36.30
2022-10-22T16:36:46.199Z,42.05
2022-10-22T16:39:17.127Z,43.88
2022-10-22T16:41:48.187Z,40.65
2022-10-22T16:44:17.170Z,46.47
2022-10-22T16:46:48.545Z,51.05
2022-10-22T16:49:19.557Z,49.67
2022-10-22T16:51:51.257Z,47.83
2022-10-22T16:54:22.115Z,43.30
2022-10-22T16:56:53.218Z,42.10
2022-10-22T16:59:22.348Z,44.60
2022-10-22T17:01:52.850Z,44.92
2022-10-22T17:04:23.047Z,48.30
2022-10-22T17:06:52.343Z,49.28
2022-10-22T17:09:24.762Z,57.03
2022-10-22T17:11:56.221Z,49.20
2022-10-22T17:14:25.253Z,54.53
2022-10-22T17:16:59.196Z,62.57
2022-10-22T17:19:31.836Z,54.00
2022-10-22T17:22:03.038Z,55.25
2022-10-22T17:24:33.092Z,47.95
2022-10-22T17:29:37.932Z,54.60
2022-10-22T17:32:06.671Z,51.00
2022-10-22T17:34:35.473Z,50.85
2022-10-22T17:37:06.441Z,51.63
2022-10-22T17:39:35.164Z,56.63
2022-10-22T17:42:06.476Z,73.72
2022-10-22T17:44:43.339Z,58.67
2022-10-22T17:47:12.956Z,58.58
2022-10-22T17:49:43.235Z,64.78
2022-10-22T17:52:13.867Z,60.03
2022-10-22T17:54:42.917Z,51.83
2022-10-22T17:57:14.596Z,50.88
2022-10-22T18:02:18.155Z,49.28
2022-10-22T18:04:46.903Z,50.28
2022-10-22T18:07:18.508Z,53.47
2022-10-22T18:09:48.087Z,51.08
2022-10-22T18:12:19.576Z,51.45
2022-10-22T18:14:50.357Z,49.55
2022-10-22T18:17:21.128Z,55.97
2022-10-22T18:19:51.637Z,53.03
2022-10-22T18:22:21.570Z,49.67
2022-10-22T18:24:50.932Z,51.42
2022-10-22T18:27:21.412Z,53.30
2022-10-22T18:29:57.355Z,56.58
2022-10-22T18:32:26.917Z,51.85
2022-10-22T18:34:55.470Z,53.65
2022-10-22T18:37:23.996Z,54.42
2022-10-22T18:39:52.821Z,50.75
2022-10-22T18:42:26.458Z,49.25
2022-10-22T18:44:58.073Z,49.70
2022-10-22T18:47:27.708Z,47.33
2022-10-22T18:50:00.257Z,51.67
2022-10-22T18:52:32.512Z,56.65
2022-10-22T18:55:08.275Z,48.85
2022-10-22T18:57:38.968Z,51.85
2022-10-22T19:00:09.780Z,50.28
2022-10-22T19:02:39.246Z,49.97
2022-10-22T19:05:09.744Z,49.97
2022-10-22T19:07:39.033Z,56.17
2022-10-22T19:10:09.234Z,52.78
2022-10-22T19:12:45.118Z,53.63
2022-10-22T19:15:18.715Z,47.38
2022-10-22T19:17:48.477Z,49.20
2022-10-22T19:20:17.562Z,56.15
2022-10-22T19:22:48.500Z,54.35
2022-10-22T19:25:17.212Z,56.53
2022-10-22T19:27:51.898Z,54.50
2022-10-22T19:30:20.838Z,59.10
2022-10-22T19:32:50.187Z,55.15
2022-10-22T19:35:20.248Z,55.95
2022-10-22T19:37:49.916Z,55.13
2022-10-22T19:40:25.722Z,55.35
2022-10-22T19:42:56.669Z,56.95
2022-10-22T19:45:25.905Z,55.53
2022-10-22T19:47:54.785Z,58.67
2022-10-22T19:50:23.794Z,58.22
2022-10-22T19:52:55.886Z,55.35
2022-10-22T19:55:24.680Z,58.50
2022-10-22T19:57:55.953Z,58.35
2022-10-22T20:00:29.217Z,54.38
2022-10-22T20:03:00.976Z,53.65
2022-10-22T20:08:01.152Z,61.58
2022-10-22T20:10:30.155Z,62.42
2022-10-22T20:12:59.513Z,63.03
2022-10-22T20:15:32.706Z,62.55
2022-10-22T20:18:06.175Z,59.80
2022-10-22T20:20:39.103Z,61.15
2022-10-22T20:23:09.646Z,62.78
2022-10-22T20:25:44.718Z,58.35
2022-10-22T20:28:15.455Z,61.75
2022-10-22T20:30:46.616Z,65.30
2022-10-22T20:33:16.652Z,63.08
2022-10-22T20:35:47.336Z,61.70
2022-10-22T20:38:18.896Z,63.33
2022-10-22T20:41:00.742Z,63.78
2022-10-22T20:43:31.304Z,56.53
2022-10-22T20:46:02.135Z,58.35
2022-10-22T20:48:33.483Z,61.65
2022-10-22T20:51:05.226Z,60.90
2022-10-22T20:53:46.119Z,58.63
2022-10-22T20:56:15.588Z,55.17
2022-10-22T20:58:48.544Z,54.80
2022-10-22T21:01:24.674Z,55.55
2022-10-22T21:03:58.374Z,53.60
2022-10-22T21:06:26.666Z,55.08
2022-10-22T21:09:02.788Z,52.90
2022-10-22T21:11:31.181Z,49.83
2022-10-22T21:14:00.351Z,48.35
2022-10-22T21:16:31.124Z,50.95
2022-10-22T21:19:06.707Z,51.47
2022-10-22T21:21:35.511Z,51.65
2022-10-22T21:24:06.219Z,49.72
2022-10-22T21:26:40.233Z,51.58
2022-10-22T21:29:08.973Z,56.53
2022-10-22T21:31:42.930Z,48.85
2022-10-22T21:34:13.960Z,51.40
2022-10-22T21:36:42.957Z,48.20
2022-10-22T21:39:11.882Z,44.67
2022-10-22T21:41:40.936Z,49.55
2022-10-22T21:44:09.167Z,52.75
2022-10-22T21:46:40.349Z,49.20
2022-10-22T21:49:08.455Z,47.67
2022-10-22T21:51:39.273Z,51.00
2022-10-22T21:54:09.919Z,51.85
2022-10-22T21:56:38.035Z,47.88
2022-10-22T21:59:11.676Z,55.05
2022-10-22T22:01:44.801Z,57.03
2022-10-22T22:04:13.277Z,52.90
2022-10-22T22:06:41.574Z,55.55
2022-10-22T22:09:13.562Z,51.33
2022-10-22T22:11:42.824Z,48.25
2022-10-22T22:14:12.217Z,49.40
2022-10-22T22:19:13.556Z,57.65
2022-10-22T22:21:42.916Z,59.08
2022-10-22T22:24:14.345Z,56.38
2022-10-22T22:26:42.566Z,56.33
2022-10-22T22:29:11.859Z,62.47
2022-10-22T22:31:40.742Z,62.13
2022-10-22T22:34:18.274Z,57.45
2022-10-22T22:36:51.378Z,56.20
2022-10-22T22:39:22.777Z,58.95
2022-10-22T22:41:51.444Z,67.97
2022-10-22T22:44:19.812Z,66.15
2022-10-22T22:46:48.551Z,58.70
2022-10-22T22:49:18.586Z,60.05
2022-10-22T22:51:47.139Z,56.70
2022-10-22T22:54:15.380Z,61.20
2022-10-22T22:56:45.763Z,63.47
2022-10-22T22:59:14.023Z,61.42
2022-10-22T23:01:42.651Z,77.65
2022-10-22T23:04:13.703Z,72.40
2022-10-22T23:06:43.892Z,75.30
2022-10-22T23:09:14.896Z,76.25
2022-10-22T23:11:45.042Z,74.28
2022-10-22T23:14:15.844Z,66.97
2022-10-22T23:16:46.997Z,73.18
2022-10-22T23:19:17.778Z,63.75
2022-10-22T23:21:49.434Z,68.72
2022-10-22T23:24:22.176Z,71.57
2022-10-22T23:26:52.071Z,68.60
2022-10-22T23:29:26.663Z,82.85
2022-10-22T23:31:54.874Z,81.32
2022-10-22T23:34:27.602Z,86.43
2022-10-22T23:36:58.365Z,93.57
2022-10-22T23:39:29.738Z,105.80
2022-10-22T23:41:58.518Z,99.37
2022-10-22T23:44:29.938Z,84.35
2022-10-22T23:46:58.710Z,78.00
2022-10-22T23:49:28.194Z,79.57
2022-10-22T23:52:02.125Z,76.85
2022-10-22T23:54:30.733Z,72.60
2022-10-22T23:56:58.983Z,89.10
2022-10-22T23:59:29.559Z,90.72
